Terminal Aerodrome Forecast
Issued by NWS Omaha/Valley, NE

Current Version | Previous Version | Text Only | Print | Product List | Glossary On
Versions: 1 2 3 4 5 6 7 8 9 10 11 12 13 14 15 16 17 18
000
FTUS43 KOAX 240520
TAFOMA
TAF
KOMA 240520Z 2406/2506 34010KT P6SM BKN090
     FM241700 35009KT P6SM SCT050
     FM250200 VRB04KT P6SM FEW200=

USA.gov is the U.S. government's official web portal to all federal, state and local government web resources and services.